sensor_id;sensor_type;location;lat;lon;timestamp;temperature;humidity
46309;DHT22;32037;50.820;6.494;2022-09-27T00:01:00;15.40;59.40
46309;DHT22;32037;50.820;6.494;2022-09-27T00:03:29;15.40;59.50
46309;DHT22;32037;50.820;6.494;2022-09-27T00:06:02;15.40;59.40
46309;DHT22;32037;50.820;6.494;2022-09-27T00:08:32;15.40;59.40
46309;DHT22;32037;50.820;6.494;2022-09-27T00:11:03;15.40;59.50
46309;DHT22;32037;50.820;6.494;2022-09-27T00:13:32;15.40;59.50
46309;DHT22;32037;50.820;6.494;2022-09-27T00:16:02;15.40;59.40
46309;DHT22;32037;50.820;6.494;2022-09-27T00:18:32;15.40;59.40
46309;DHT22;32037;50.820;6.494;2022-09-27T00:21:05;15.40;59.40
46309;DHT22;32037;50.820;6.494;2022-09-27T00:23:34;15.40;59.40
46309;DHT22;32037;50.820;6.494;2022-09-27T00:26:05;15.30;59.40
46309;DHT22;32037;50.820;6.494;2022-09-27T00:28:34;15.40;59.40
46309;DHT22;32037;50.820;6.494;2022-09-27T00:31:02;15.30;59.40
46309;DHT22;32037;50.820;6.494;2022-09-27T00:33:32;15.40;59.40
46309;DHT22;32037;50.820;6.494;2022-09-27T00:36:03;15.30;59.40
46309;DHT22;32037;50.820;6.494;2022-09-27T00:38:32;15.30;59.40
46309;DHT22;32037;50.820;6.494;2022-09-27T00:41:00;15.30;59.40
46309;DHT22;32037;50.820;6.494;2022-09-27T00:43:43;15.30;59.40
46309;DHT22;32037;50.820;6.494;2022-09-27T00:46:16;15.30;59.40
46309;DHT22;32037;50.820;6.494;2022-09-27T00:48:47;15.30;59.40
46309;DHT22;32037;50.820;6.494;2022-09-27T00:51:17;15.30;59.40
46309;DHT22;32037;50.820;6.494;2022-09-27T00:53:49;15.30;59.40
46309;DHT22;32037;50.820;6.494;2022-09-27T00:56:22;15.30;59.40
46309;DHT22;32037;50.820;6.494;2022-09-27T00:58:55;15.30;59.40
46309;DHT22;32037;50.820;6.494;2022-09-27T01:01:26;15.30;59.40
46309;DHT22;32037;50.820;6.494;2022-09-27T01:04:00;15.30;59.40
46309;DHT22;32037;50.820;6.494;2022-09-27T01:06:31;15.30;59.40
46309;DHT22;32037;50.820;6.494;2022-09-27T01:08:59;15.30;59.40
46309;DHT22;32037;50.820;6.494;2022-09-27T01:11:35;15.30;59.40
46309;DHT22;32037;50.820;6.494;2022-09-27T01:17:15;15.30;59.40
46309;DHT22;32037;50.820;6.494;2022-09-27T01:22:54;15.30;59.40
46309;DHT22;32037;50.820;6.494;2022-09-27T01:25:44;15.30;59.40
46309;DHT22;32037;50.820;6.494;2022-09-27T01:28:20;15.30;59.40
46309;DHT22;32037;50.820;6.494;2022-09-27T01:30:58;15.30;59.40
46309;DHT22;32037;50.820;6.494;2022-09-27T01:33:39;15.30;59.40
46309;DHT22;32037;50.820;6.494;2022-09-27T01:36:17;15.30;59.40
46309;DHT22;32037;50.820;6.494;2022-09-27T01:38:59;15.30;59.40
46309;DHT22;32037;50.820;6.494;2022-09-27T01:41:49;15.30;59.40
46309;DHT22;32037;50.820;6.494;2022-09-27T01:44:33;15.30;59.40
46309;DHT22;32037;50.820;6.494;2022-09-27T01:47:14;15.30;59.40
46309;DHT22;32037;50.820;6.494;2022-09-27T01:49:59;15.30;60.70
46309;DHT22;32037;50.820;6.494;2022-09-27T01:52:35;15.20;59.40
46309;DHT22;32037;50.820;6.494;2022-09-27T01:55:08;15.20;59.30
46309;DHT22;32037;50.820;6.494;2022-09-27T01:57:54;15.30;59.40
46309;DHT22;32037;50.820;6.494;2022-09-27T02:00:25;15.20;59.30
46309;DHT22;32037;50.820;6.494;2022-09-27T02:02:58;15.20;59.30
46309;DHT22;32037;50.820;6.494;2022-09-27T02:05:36;15.20;59.30
46309;DHT22;32037;50.820;6.494;2022-09-27T02:08:28;15.20;59.30
46309;DHT22;32037;50.820;6.494;2022-09-27T02:11:05;15.20;59.30
46309;DHT22;32037;50.820;6.494;2022-09-27T02:13:45;15.20;59.30
46309;DHT22;32037;50.820;6.494;2022-09-27T02:16:44;15.20;59.40
46309;DHT22;32037;50.820;6.494;2022-09-27T02:19:26;15.20;59.30
46309;DHT22;32037;50.820;6.494;2022-09-27T02:22:06;15.20;59.30
46309;DHT22;32037;50.820;6.494;2022-09-27T02:27:42;15.20;59.30
46309;DHT22;32037;50.820;6.494;2022-09-27T02:30:18;15.20;59.30
46309;DHT22;32037;50.820;6.494;2022-09-27T02:32:52;15.20;59.30
46309;DHT22;32037;50.820;6.494;2022-09-27T02:35:26;15.20;59.30
46309;DHT22;32037;50.820;6.494;2022-09-27T02:37:56;15.20;59.30
46309;DHT22;32037;50.820;6.494;2022-09-27T02:40:30;15.20;59.30
46309;DHT22;32037;50.820;6.494;2022-09-27T02:42:59;15.20;59.30
46309;DHT22;32037;50.820;6.494;2022-09-27T02:45:32;15.20;59.30
46309;DHT22;32037;50.820;6.494;2022-09-27T02:48:12;15.20;59.30
46309;DHT22;32037;50.820;6.494;2022-09-27T02:51:06;15.20;59.30
46309;DHT22;32037;50.820;6.494;2022-09-27T02:53:51;15.20;59.30
46309;DHT22;32037;50.820;6.494;2022-09-27T02:56:49;15.20;59.30
46309;DHT22;32037;50.820;6.494;2022-09-27T02:59:59;15.20;59.40
46309;DHT22;32037;50.820;6.494;2022-09-27T03:02:54;15.20;59.40
46309;DHT22;32037;50.820;6.494;2022-09-27T03:05:40;15.10;59.20
46309;DHT22;32037;50.820;6.494;2022-09-27T03:08:12;15.10;59.20
46309;DHT22;32037;50.820;6.494;2022-09-27T03:10:40;15.10;59.20
46309;DHT22;32037;50.820;6.494;2022-09-27T03:13:10;15.10;59.20
46309;DHT22;32037;50.820;6.494;2022-09-27T03:15:40;15.10;59.20
46309;DHT22;32037;50.820;6.494;2022-09-27T03:18:17;15.10;59.30
46309;DHT22;32037;50.820;6.494;2022-09-27T03:21:04;15.10;59.20
46309;DHT22;32037;50.820;6.494;2022-09-27T03:23:34;15.10;59.30
46309;DHT22;32037;50.820;6.494;2022-09-27T03:26:02;15.10;59.20
46309;DHT22;32037;50.820;6.494;2022-09-27T03:28:35;15.10;59.20
46309;DHT22;32037;50.820;6.494;2022-09-27T03:31:04;15.10;59.30
46309;DHT22;32037;50.820;6.494;2022-09-27T03:33:49;15.10;59.20
46309;DHT22;32037;50.820;6.494;2022-09-27T03:36:19;15.10;59.20
46309;DHT22;32037;50.820;6.494;2022-09-27T03:38:49;15.10;59.20
46309;DHT22;32037;50.820;6.494;2022-09-27T03:41:19;15.10;59.20
46309;DHT22;32037;50.820;6.494;2022-09-27T03:43:48;15.10;59.20
46309;DHT22;32037;50.820;6.494;2022-09-27T03:46:19;15.10;59.20
46309;DHT22;32037;50.820;6.494;2022-09-27T03:48:48;15.10;59.20
46309;DHT22;32037;50.820;6.494;2022-09-27T03:51:16;15.10;59.20
46309;DHT22;32037;50.820;6.494;2022-09-27T03:53:46;15.10;59.20
46309;DHT22;32037;50.820;6.494;2022-09-27T03:56:16;15.10;59.20
46309;DHT22;32037;50.820;6.494;2022-09-27T03:58:45;15.10;59.20
46309;DHT22;32037;50.820;6.494;2022-09-27T04:01:14;15.10;59.20
46309;DHT22;32037;50.820;6.494;2022-09-27T04:03:44;15.10;59.20
46309;DHT22;32037;50.820;6.494;2022-09-27T04:06:24;15.10;59.20
46309;DHT22;32037;50.820;6.494;2022-09-27T04:08:53;15.10;59.20
46309;DHT22;32037;50.820;6.494;2022-09-27T04:11:28;15.00;59.10
46309;DHT22;32037;50.820;6.494;2022-09-27T04:13:59;15.10;59.20
46309;DHT22;32037;50.820;6.494;2022-09-27T04:16:30;15.10;59.20
46309;DHT22;32037;50.820;6.494;2022-09-27T04:19:25;15.00;59.10
46309;DHT22;32037;50.820;6.494;2022-09-27T04:22:08;15.00;60.30
46309;DHT22;32037;50.820;6.494;2022-09-27T04:24:39;15.00;59.10
46309;DHT22;32037;50.820;6.494;2022-09-27T04:27:21;15.00;59.10
46309;DHT22;32037;50.820;6.494;2022-09-27T04:29:50;15.00;59.10
46309;DHT22;32037;50.820;6.494;2022-09-27T04:32:40;15.00;59.20
46309;DHT22;32037;50.820;6.494;2022-09-27T04:35:27;15.00;59.10
46309;DHT22;32037;50.820;6.494;2022-09-27T04:38:13;15.00;59.10
46309;DHT22;32037;50.820;6.494;2022-09-27T04:40:41;15.00;59.10
46309;DHT22;32037;50.820;6.494;2022-09-27T04:43:12;15.00;59.10
46309;DHT22;32037;50.820;6.494;2022-09-27T04:45:42;15.00;59.10
46309;DHT22;32037;50.820;6.494;2022-09-27T04:48:10;15.00;59.10
46309;DHT22;32037;50.820;6.494;2022-09-27T04:50:39;15.00;59.10
46309;DHT22;32037;50.820;6.494;2022-09-27T04:53:12;15.00;59.10
46309;DHT22;32037;50.820;6.494;2022-09-27T04:55:44;15.00;59.10
46309;DHT22;32037;50.820;6.494;2022-09-27T04:58:15;15.00;59.10
46309;DHT22;32037;50.820;6.494;2022-09-27T05:00:45;15.00;59.10
46309;DHT22;32037;50.820;6.494;2022-09-27T05:03:47;15.00;59.10
46309;DHT22;32037;50.820;6.494;2022-09-27T05:06:16;15.00;59.10
46309;DHT22;32037;50.820;6.494;2022-09-27T05:08:44;15.00;59.10
46309;DHT22;32037;50.820;6.494;2022-09-27T05:11:26;15.00;59.10
46309;DHT22;32037;50.820;6.494;2022-09-27T05:14:15;15.00;59.10
46309;DHT22;32037;50.820;6.494;2022-09-27T05:16:58;15.00;59.20
46309;DHT22;32037;50.820;6.494;2022-09-27T05:19:42;14.90;59.00
46309;DHT22;32037;50.820;6.494;2022-09-27T05:22:15;15.00;59.10
46309;DHT22;32037;50.820;6.494;2022-09-27T05:24:44;15.00;59.10
46309;DHT22;32037;50.820;6.494;2022-09-27T05:27:14;15.00;59.10
46309;DHT22;32037;50.820;6.494;2022-09-27T05:29:46;15.00;59.10
46309;DHT22;32037;50.820;6.494;2022-09-27T05:32:20;15.00;59.10
46309;DHT22;32037;50.820;6.494;2022-09-27T05:35:02;15.00;59.10
46309;DHT22;32037;50.820;6.494;2022-09-27T05:37:31;15.00;59.10
46309;DHT22;32037;50.820;6.494;2022-09-27T05:40:00;15.00;59.10
46309;DHT22;32037;50.820;6.494;2022-09-27T05:42:50;15.00;59.20
46309;DHT22;32037;50.820;6.494;2022-09-27T05:45:22;14.90;59.00
46309;DHT22;32037;50.820;6.494;2022-09-27T05:47:55;15.00;59.20
46309;DHT22;32037;50.820;6.494;2022-09-27T05:50:26;15.00;59.10
46309;DHT22;32037;50.820;6.494;2022-09-27T05:52:55;15.00;59.10
46309;DHT22;32037;50.820;6.494;2022-09-27T05:55:24;15.00;59.10
46309;DHT22;32037;50.820;6.494;2022-09-27T05:57:57;15.00;59.10
46309;DHT22;32037;50.820;6.494;2022-09-27T06:00:37;15.00;59.10
46309;DHT22;32037;50.820;6.494;2022-09-27T06:03:26;14.90;59.10
46309;DHT22;32037;50.820;6.494;2022-09-27T06:06:20;15.00;59.10
46309;DHT22;32037;50.820;6.494;2022-09-27T06:08:54;14.90;59.10
46309;DHT22;32037;50.820;6.494;2022-09-27T06:11:24;14.90;59.00
46309;DHT22;32037;50.820;6.494;2022-09-27T06:13:53;14.90;59.00
46309;DHT22;32037;50.820;6.494;2022-09-27T06:16:25;14.90;59.10
46309;DHT22;32037;50.820;6.494;2022-09-27T06:18:53;14.90;59.00
46309;DHT22;32037;50.820;6.494;2022-09-27T06:21:22;14.90;59.00
46309;DHT22;32037;50.820;6.494;2022-09-27T06:23:55;14.90;59.00
46309;DHT22;32037;50.820;6.494;2022-09-27T06:26:29;14.90;59.00
46309;DHT22;32037;50.820;6.494;2022-09-27T06:29:14;14.90;59.10
46309;DHT22;32037;50.820;6.494;2022-09-27T06:31:51;14.90;59.10
46309;DHT22;32037;50.820;6.494;2022-09-27T06:34:28;14.90;59.00
46309;DHT22;32037;50.820;6.494;2022-09-27T06:36:56;14.90;59.10
46309;DHT22;32037;50.820;6.494;2022-09-27T06:39:26;14.90;59.00
46309;DHT22;32037;50.820;6.494;2022-09-27T06:42:31;14.90;59.10
46309;DHT22;32037;50.820;6.494;2022-09-27T06:45:15;14.90;59.10
46309;DHT22;32037;50.820;6.494;2022-09-27T06:48:24;14.90;59.10
46309;DHT22;32037;50.820;6.494;2022-09-27T06:51:04;14.90;59.00
46309;DHT22;32037;50.820;6.494;2022-09-27T06:53:33;14.90;59.10
46309;DHT22;32037;50.820;6.494;2022-09-27T06:56:03;14.90;59.10
46309;DHT22;32037;50.820;6.494;2022-09-27T06:58:44;14.90;59.00
46309;DHT22;32037;50.820;6.494;2022-09-27T07:01:56;14.90;59.60
46309;DHT22;32037;50.820;6.494;2022-09-27T07:04:43;14.90;59.00
46309;DHT22;32037;50.820;6.494;2022-09-27T07:07:27;14.80;58.90
46309;DHT22;32037;50.820;6.494;2022-09-27T07:09:56;14.90;59.10
46309;DHT22;32037;50.820;6.494;2022-09-27T07:12:27;14.90;59.00
46309;DHT22;32037;50.820;6.494;2022-09-27T07:14:56;14.90;59.10
46309;DHT22;32037;50.820;6.494;2022-09-27T07:17:26;14.90;59.00
46309;DHT22;32037;50.820;6.494;2022-09-27T07:19:58;14.90;59.00
46309;DHT22;32037;50.820;6.494;2022-09-27T07:22:26;14.90;59.00
46309;DHT22;32037;50.820;6.494;2022-09-27T07:25:00;14.80;59.00
46309;DHT22;32037;50.820;6.494;2022-09-27T07:27:29;14.90;59.10
46309;DHT22;32037;50.820;6.494;2022-09-27T07:29:59;14.90;59.10
46309;DHT22;32037;50.820;6.494;2022-09-27T07:32:28;14.90;59.00
46309;DHT22;32037;50.820;6.494;2022-09-27T07:34:58;14.90;59.10
46309;DHT22;32037;50.820;6.494;2022-09-27T07:37:27;14.90;59.00
46309;DHT22;32037;50.820;6.494;2022-09-27T07:39:56;14.90;59.00
46309;DHT22;32037;50.820;6.494;2022-09-27T07:42:26;14.90;59.00
46309;DHT22;32037;50.820;6.494;2022-09-27T07:44:57;14.90;59.00
46309;DHT22;32037;50.820;6.494;2022-09-27T07:47:45;14.90;59.00
46309;DHT22;32037;50.820;6.494;2022-09-27T07:50:22;14.90;59.00
46309;DHT22;32037;50.820;6.494;2022-09-27T07:52:55;14.90;59.10
46309;DHT22;32037;50.820;6.494;2022-09-27T07:55:35;14.90;59.10
46309;DHT22;32037;50.820;6.494;2022-09-27T07:58:18;14.90;59.00
46309;DHT22;32037;50.820;6.494;2022-09-27T08:00:50;15.00;59.10
46309;DHT22;32037;50.820;6.494;2022-09-27T08:03:21;15.00;59.10
46309;DHT22;32037;50.820;6.494;2022-09-27T08:05:52;15.00;59.10
46309;DHT22;32037;50.820;6.494;2022-09-27T08:08:24;15.00;59.10
46309;DHT22;32037;50.820;6.494;2022-09-27T08:10:58;15.00;59.10
46309;DHT22;32037;50.820;6.494;2022-09-27T08:13:27;15.00;59.10
46309;DHT22;32037;50.820;6.494;2022-09-27T08:16:00;15.00;59.10
46309;DHT22;32037;50.820;6.494;2022-09-27T08:18:43;15.00;59.10
46309;DHT22;32037;50.820;6.494;2022-09-27T08:21:33;15.00;59.10
46309;DHT22;32037;50.820;6.494;2022-09-27T08:24:14;15.00;59.10
46309;DHT22;32037;50.820;6.494;2022-09-27T08:27:02;15.00;59.10
46309;DHT22;32037;50.820;6.494;2022-09-27T08:29:52;15.00;60.30
46309;DHT22;32037;50.820;6.494;2022-09-27T08:32:22;15.00;59.10
46309;DHT22;32037;50.820;6.494;2022-09-27T08:34:51;15.00;59.10
46309;DHT22;32037;50.820;6.494;2022-09-27T08:37:22;15.00;59.10
46309;DHT22;32037;50.820;6.494;2022-09-27T08:39:51;15.00;59.10
46309;DHT22;32037;50.820;6.494;2022-09-27T08:42:27;15.00;60.30
46309;DHT22;32037;50.820;6.494;2022-09-27T08:45:07;15.00;60.30
46309;DHT22;32037;50.820;6.494;2022-09-27T08:47:43;15.00;59.10
46309;DHT22;32037;50.820;6.494;2022-09-27T08:50:21;15.00;59.10
46309;DHT22;32037;50.820;6.494;2022-09-27T08:52:57;15.00;59.10
46309;DHT22;32037;50.820;6.494;2022-09-27T08:55:31;15.00;59.10
46309;DHT22;32037;50.820;6.494;2022-09-27T08:58:13;15.00;59.10
46309;DHT22;32037;50.820;6.494;2022-09-27T09:00:44;15.00;59.10
46309;DHT22;32037;50.820;6.494;2022-09-27T09:03:17;15.00;59.10
46309;DHT22;32037;50.820;6.494;2022-09-27T09:05:55;15.00;59.10
46309;DHT22;32037;50.820;6.494;2022-09-27T09:08:41;15.00;59.10
46309;DHT22;32037;50.820;6.494;2022-09-27T09:11:30;15.00;59.10
46309;DHT22;32037;50.820;6.494;2022-09-27T09:14:36;15.00;59.10
46309;DHT22;32037;50.820;6.494;2022-09-27T09:17:17;15.00;59.20
46309;DHT22;32037;50.820;6.494;2022-09-27T09:20:18;15.00;59.20
46309;DHT22;32037;50.820;6.494;2022-09-27T09:23:14;15.00;59.20
46309;DHT22;32037;50.820;6.494;2022-09-27T09:25:55;15.00;59.10
46309;DHT22;32037;50.820;6.494;2022-09-27T09:28:38;14.90;59.00
46309;DHT22;32037;50.820;6.494;2022-09-27T09:31:17;15.00;59.10
46309;DHT22;32037;50.820;6.494;2022-09-27T09:33:53;15.00;59.10
46309;DHT22;32037;50.820;6.494;2022-09-27T09:36:26;15.00;59.10
46309;DHT22;32037;50.820;6.494;2022-09-27T09:39:01;15.00;59.10
46309;DHT22;32037;50.820;6.494;2022-09-27T09:41:35;15.00;59.10
46309;DHT22;32037;50.820;6.494;2022-09-27T09:44:15;15.00;59.10
46309;DHT22;32037;50.820;6.494;2022-09-27T09:46:48;15.00;60.30
46309;DHT22;32037;50.820;6.494;2022-09-27T09:49:24;15.00;59.60
46309;DHT22;32037;50.820;6.494;2022-09-27T09:51:58;15.00;59.00
46309;DHT22;32037;50.820;6.494;2022-09-27T09:54:39;15.00;59.00
46309;DHT22;32037;50.820;6.494;2022-09-27T09:57:14;15.00;60.30
46309;DHT22;32037;50.820;6.494;2022-09-27T09:59:49;15.00;59.10
46309;DHT22;32037;50.820;6.494;2022-09-27T10:02:30;15.00;58.90
46309;DHT22;32037;50.820;6.494;2022-09-27T10:05:14;15.00;59.00
46309;DHT22;32037;50.820;6.494;2022-09-27T10:07:49;15.00;59.10
46309;DHT22;32037;50.820;6.494;2022-09-27T10:10:22;15.00;59.00
46309;DHT22;32037;50.820;6.494;2022-09-27T10:12:55;15.00;59.00
46309;DHT22;32037;50.820;6.494;2022-09-27T10:15:29;15.00;59.10
46309;DHT22;32037;50.820;6.494;2022-09-27T10:17:58;15.00;59.10
46309;DHT22;32037;50.820;6.494;2022-09-27T10:20:31;15.00;59.00
46309;DHT22;32037;50.820;6.494;2022-09-27T10:23:05;14.90;59.00
46309;DHT22;32037;50.820;6.494;2022-09-27T10:25:56;15.00;59.10
46309;DHT22;32037;50.820;6.494;2022-09-27T10:28:36;14.90;59.00
46309;DHT22;32037;50.820;6.494;2022-09-27T10:31:07;14.90;59.00
46309;DHT22;32037;50.820;6.494;2022-09-27T10:33:52;14.90;59.10
46309;DHT22;32037;50.820;6.494;2022-09-27T10:36:25;14.90;59.10
46309;DHT22;32037;50.820;6.494;2022-09-27T10:38:56;14.90;59.10
46309;DHT22;32037;50.820;6.494;2022-09-27T10:41:44;14.90;59.00
46309;DHT22;32037;50.820;6.494;2022-09-27T10:44:24;14.80;59.00
46309;DHT22;32037;50.820;6.494;2022-09-27T10:47:22;14.80;59.00
46309;DHT22;32037;50.820;6.494;2022-09-27T10:50:04;14.80;59.00
46309;DHT22;32037;50.820;6.494;2022-09-27T10:53:12;14.80;58.90
46309;DHT22;32037;50.820;6.494;2022-09-27T10:55:46;14.80;58.90
46309;DHT22;32037;50.820;6.494;2022-09-27T10:58:18;14.80;58.90
46309;DHT22;32037;50.820;6.494;2022-09-27T11:00:56;14.80;59.00
46309;DHT22;32037;50.820;6.494;2022-09-27T11:03:29;14.80;59.00
46309;DHT22;32037;50.820;6.494;2022-09-27T11:05:59;14.80;58.90
46309;DHT22;32037;50.820;6.494;2022-09-27T11:08:30;14.80;58.90
46309;DHT22;32037;50.820;6.494;2022-09-27T11:11:17;14.80;58.90
46309;DHT22;32037;50.820;6.494;2022-09-27T11:13:58;14.80;58.90
46309;DHT22;32037;50.820;6.494;2022-09-27T11:16:40;14.80;58.90
46309;DHT22;32037;50.820;6.494;2022-09-27T11:19:33;14.80;58.90
46309;DHT22;32037;50.820;6.494;2022-09-27T11:22:13;14.80;59.00
46309;DHT22;32037;50.820;6.494;2022-09-27T11:24:56;14.80;59.00
46309;DHT22;32037;50.820;6.494;2022-09-27T11:27:39;14.80;58.90
46309;DHT22;32037;50.820;6.494;2022-09-27T11:30:14;14.80;58.90
46309;DHT22;32037;50.820;6.494;2022-09-27T11:33:15;14.80;58.90
46309;DHT22;32037;50.820;6.494;2022-09-27T11:35:55;14.80;58.90
46309;DHT22;32037;50.820;6.494;2022-09-27T11:38:30;14.80;59.00
46309;DHT22;32037;50.820;6.494;2022-09-27T11:41:29;14.80;58.90
46309;DHT22;32037;50.820;6.494;2022-09-27T11:47:01;14.80;58.90
46309;DHT22;32037;50.820;6.494;2022-09-27T11:49:59;14.80;59.00
46309;DHT22;32037;50.820;6.494;2022-09-27T11:52:41;14.80;59.00
46309;DHT22;32037;50.820;6.494;2022-09-27T11:55:30;14.80;59.00
46309;DHT22;32037;50.820;6.494;2022-09-27T11:58:11;14.80;58.90
46309;DHT22;32037;50.820;6.494;2022-09-27T12:00:56;14.80;58.90
46309;DHT22;32037;50.820;6.494;2022-09-27T12:06:41;14.80;58.90
46309;DHT22;32037;50.820;6.494;2022-09-27T12:09:13;14.80;59.00
46309;DHT22;32037;50.820;6.494;2022-09-27T12:11:50;14.80;58.90
46309;DHT22;32037;50.820;6.494;2022-09-27T12:14:23;14.80;59.00
46309;DHT22;32037;50.820;6.494;2022-09-27T12:16:56;14.80;58.90
46309;DHT22;32037;50.820;6.494;2022-09-27T12:19:28;14.80;58.90
46309;DHT22;32037;50.820;6.494;2022-09-27T12:22:11;14.80;59.00
46309;DHT22;32037;50.820;6.494;2022-09-27T12:24:45;14.80;58.90
46309;DHT22;32037;50.820;6.494;2022-09-27T12:27:38;14.80;59.00
46309;DHT22;32037;50.820;6.494;2022-09-27T12:30:13;14.80;58.90
46309;DHT22;32037;50.820;6.494;2022-09-27T12:32:50;14.80;58.90
46309;DHT22;32037;50.820;6.494;2022-09-27T12:35:22;14.80;58.90
46309;DHT22;32037;50.820;6.494;2022-09-27T12:37:58;14.80;58.90
46309;DHT22;32037;50.820;6.494;2022-09-27T12:40:29;14.80;59.00
46309;DHT22;32037;50.820;6.494;2022-09-27T12:43:05;14.80;58.90
46309;DHT22;32037;50.820;6.494;2022-09-27T12:46:02;14.80;59.00
46309;DHT22;32037;50.820;6.494;2022-09-27T12:48:42;14.80;59.00
46309;DHT22;32037;50.820;6.494;2022-09-27T12:51:17;14.80;58.90
46309;DHT22;32037;50.820;6.494;2022-09-27T12:54:02;14.80;58.90
46309;DHT22;32037;50.820;6.494;2022-09-27T12:56:44;14.80;58.90
46309;DHT22;32037;50.820;6.494;2022-09-27T12:59:35;14.80;59.00
46309;DHT22;32037;50.820;6.494;2022-09-27T13:02:31;14.80;59.00
46309;DHT22;32037;50.820;6.494;2022-09-27T13:08:34;14.80;58.90
46309;DHT22;32037;50.820;6.494;2022-09-27T13:11:11;14.80;58.90
46309;DHT22;32037;50.820;6.494;2022-09-27T13:13:43;14.80;60.10
46309;DHT22;32037;50.820;6.494;2022-09-27T13:16:11;14.80;59.00
46309;DHT22;32037;50.820;6.494;2022-09-27T13:18:51;14.80;58.90
46309;DHT22;32037;50.820;6.494;2022-09-27T13:24:44;14.80;58.90
46309;DHT22;32037;50.820;6.494;2022-09-27T13:27:53;14.80;58.90
46309;DHT22;32037;50.820;6.494;2022-09-27T13:30:46;14.80;58.90
46309;DHT22;32037;50.820;6.494;2022-09-27T13:33:41;14.80;58.90
46309;DHT22;32037;50.820;6.494;2022-09-27T13:36:30;14.80;58.90
46309;DHT22;32037;50.820;6.494;2022-09-27T13:39:19;14.80;59.00
46309;DHT22;32037;50.820;6.494;2022-09-27T13:42:33;14.80;58.90
46309;DHT22;32037;50.820;6.494;2022-09-27T13:45:19;14.80;58.90
46309;DHT22;32037;50.820;6.494;2022-09-27T13:47:51;14.80;58.90
46309;DHT22;32037;50.820;6.494;2022-09-27T13:50:36;14.80;60.20
46309;DHT22;32037;50.820;6.494;2022-09-27T13:53:19;14.80;59.00
46309;DHT22;32037;50.820;6.494;2022-09-27T13:55:50;14.80;58.90
46309;DHT22;32037;50.820;6.494;2022-09-27T13:58:50;14.80;59.00
46309;DHT22;32037;50.820;6.494;2022-09-27T14:01:47;14.80;58.90
46309;DHT22;32037;50.820;6.494;2022-09-27T14:04:22;14.80;58.90
46309;DHT22;32037;50.820;6.494;2022-09-27T14:06:55;14.80;59.00
46309;DHT22;32037;50.820;6.494;2022-09-27T14:09:29;14.80;58.90
46309;DHT22;32037;50.820;6.494;2022-09-27T14:12:17;14.80;58.90
46309;DHT22;32037;50.820;6.494;2022-09-27T14:14:48;14.90;58.90
46309;DHT22;32037;50.820;6.494;2022-09-27T14:17:18;14.90;59.00
46309;DHT22;32037;50.820;6.494;2022-09-27T14:19:47;14.80;58.80
46309;DHT22;32037;50.820;6.494;2022-09-27T14:22:22;14.90;59.10
46309;DHT22;32037;50.820;6.494;2022-09-27T14:25:17;14.90;58.60
46309;DHT22;32037;50.820;6.494;2022-09-27T14:27:50;14.90;58.60
46309;DHT22;32037;50.820;6.494;2022-09-27T14:30:35;14.90;58.40
46309;DHT22;32037;50.820;6.494;2022-09-27T14:33:33;14.90;58.50
46309;DHT22;32037;50.820;6.494;2022-09-27T14:36:06;14.80;58.30
46309;DHT22;32037;50.820;6.494;2022-09-27T14:38:59;14.90;58.60
46309;DHT22;32037;50.820;6.494;2022-09-27T14:41:37;14.80;58.90
46309;DHT22;32037;50.820;6.494;2022-09-27T14:44:12;14.90;59.00
46309;DHT22;32037;50.820;6.494;2022-09-27T14:46:41;14.90;59.00
46309;DHT22;32037;50.820;6.494;2022-09-27T14:49:18;14.80;59.00
46309;DHT22;32037;50.820;6.494;2022-09-27T14:51:50;14.80;59.00
46309;DHT22;32037;50.820;6.494;2022-09-27T14:54:21;14.80;58.90
46309;DHT22;32037;50.820;6.494;2022-09-27T14:56:52;14.80;59.00
46309;DHT22;32037;50.820;6.494;2022-09-27T14:59:25;14.80;58.90
46309;DHT22;32037;50.820;6.494;2022-09-27T15:01:58;14.80;58.90
46309;DHT22;32037;50.820;6.494;2022-09-27T15:04:30;14.80;58.90
46309;DHT22;32037;50.820;6.494;2022-09-27T15:07:00;14.80;58.90
46309;DHT22;32037;50.820;6.494;2022-09-27T15:09:30;14.80;58.90
46309;DHT22;32037;50.820;6.494;2022-09-27T15:12:00;14.80;59.00
46309;DHT22;32037;50.820;6.494;2022-09-27T15:14:31;14.80;59.00
46309;DHT22;32037;50.820;6.494;2022-09-27T15:17:14;14.80;58.90
46309;DHT22;32037;50.820;6.494;2022-09-27T15:19:57;14.80;58.90
46309;DHT22;32037;50.820;6.494;2022-09-27T15:22:40;14.80;58.90
46309;DHT22;32037;50.820;6.494;2022-09-27T15:25:19;14.90;59.00
46309;DHT22;32037;50.820;6.494;2022-09-27T15:27:51;14.90;59.10
46309;DHT22;32037;50.820;6.494;2022-09-27T15:30:24;14.90;59.00
46309;DHT22;32037;50.820;6.494;2022-09-27T15:32:56;14.90;59.10
46309;DHT22;32037;50.820;6.494;2022-09-27T15:35:30;14.80;59.00
46309;DHT22;32037;50.820;6.494;2022-09-27T15:38:22;14.90;59.00
46309;DHT22;32037;50.820;6.494;2022-09-27T15:41:08;14.80;58.90
46309;DHT22;32037;50.820;6.494;2022-09-27T15:43:43;14.90;59.00
46309;DHT22;32037;50.820;6.494;2022-09-27T15:46:27;14.90;59.70
46309;DHT22;32037;50.820;6.494;2022-09-27T15:49:25;15.00;61.00
46309;DHT22;32037;50.820;6.494;2022-09-27T15:51:58;15.00;60.90
46309;DHT22;32037;50.820;6.494;2022-09-27T15:54:28;14.90;61.50
46309;DHT22;32037;50.820;6.494;2022-09-27T15:57:01;14.90;61.40
46309;DHT22;32037;50.820;6.494;2022-09-27T15:59:33;14.80;61.30
46309;DHT22;32037;50.820;6.494;2022-09-27T16:02:05;14.80;61.20
46309;DHT22;32037;50.820;6.494;2022-09-27T16:04:37;14.70;61.00
46309;DHT22;32037;50.820;6.494;2022-09-27T16:07:07;14.70;61.20
46309;DHT22;32037;50.820;6.494;2022-09-27T16:09:36;14.70;61.10
46309;DHT22;32037;50.820;6.494;2022-09-27T16:12:05;14.70;62.60
46309;DHT22;32037;50.820;6.494;2022-09-27T16:14:33;14.70;60.80
46309;DHT22;32037;50.820;6.494;2022-09-27T16:17:02;14.80;61.00
46309;DHT22;32037;50.820;6.494;2022-09-27T16:19:30;14.70;60.90
46309;DHT22;32037;50.820;6.494;2022-09-27T16:21:59;14.80;60.80
46309;DHT22;32037;50.820;6.494;2022-09-27T16:24:31;14.80;60.70
46309;DHT22;32037;50.820;6.494;2022-09-27T16:27:00;14.80;60.70
46309;DHT22;32037;50.820;6.494;2022-09-27T16:29:29;14.80;60.60
46309;DHT22;32037;50.820;6.494;2022-09-27T16:31:57;14.80;60.50
46309;DHT22;32037;50.820;6.494;2022-09-27T16:34:26;14.80;60.50
46309;DHT22;32037;50.820;6.494;2022-09-27T16:36:54;14.80;60.50
46309;DHT22;32037;50.820;6.494;2022-09-27T16:39:27;14.80;60.30
46309;DHT22;32037;50.820;6.494;2022-09-27T16:42:00;14.80;60.40
46309;DHT22;32037;50.820;6.494;2022-09-27T16:44:32;14.80;60.20
46309;DHT22;32037;50.820;6.494;2022-09-27T16:47:03;14.80;60.30
46309;DHT22;32037;50.820;6.494;2022-09-27T16:49:32;14.80;60.20
46309;DHT22;32037;50.820;6.494;2022-09-27T16:52:18;14.80;60.10
46309;DHT22;32037;50.820;6.494;2022-09-27T16:54:47;14.80;60.10